sensor_id;sensor_type;location;lat;lon;timestamp;pressure;altitude;pressure_sealevel;temperature;humidity
27729;BME280;15126;42.186;24.340;2023-02-21T00:02:16;99677.19;;;9.40;46.08
27729;BME280;15126;42.186;24.340;2023-02-21T00:05:00;99672.03;;;9.42;45.49
27729;BME280;15126;42.186;24.340;2023-02-21T00:07:44;99666.91;;;9.37;45.66
27729;BME280;15126;42.186;24.340;2023-02-21T00:10:29;99664.22;;;9.27;46.57
27729;BME280;15126;42.186;24.340;2023-02-21T00:13:13;99658.25;;;9.28;45.58
27729;BME280;15126;42.186;24.340;2023-02-21T00:15:59;99670.22;;;9.25;46.22
27729;BME280;15126;42.186;24.340;2023-02-21T00:18:43;99651.88;;;9.31;45.82
27729;BME280;15126;42.186;24.340;2023-02-21T00:21:28;99646.31;;;9.28;46.22
27729;BME280;15126;42.186;24.340;2023-02-21T00:24:15;99625.31;;;9.23;44.70
27729;BME280;15126;42.186;24.340;2023-02-21T00:26:59;99639.19;;;9.27;45.87
27729;BME280;15126;42.186;24.340;2023-02-21T00:29:43;99640.78;;;9.24;45.22
27729;BME280;15126;42.186;24.340;2023-02-21T00:32:31;99628.91;;;9.24;45.00
27729;BME280;15126;42.186;24.340;2023-02-21T00:35:15;99628.94;;;9.20;46.22
27729;BME280;15126;42.186;24.340;2023-02-21T00:38:00;99613.88;;;9.14;46.09
27729;BME280;15126;42.186;24.340;2023-02-21T00:40:44;99623.03;;;9.11;46.33
27729;BME280;15126;42.186;24.340;2023-02-21T00:43:29;99615.03;;;9.17;45.59
27729;BME280;15126;42.186;24.340;2023-02-21T00:46:14;99597.31;;;9.00;47.28
27729;BME280;15126;42.186;24.340;2023-02-21T00:49:00;99607.56;;;9.10;46.78
27729;BME280;15126;42.186;24.340;2023-02-21T00:51:44;99594.88;;;9.06;46.91
27729;BME280;15126;42.186;24.340;2023-02-21T00:54:29;99601.03;;;8.86;48.48
27729;BME280;15126;42.186;24.340;2023-02-21T00:57:16;99603.03;;;8.86;48.37
27729;BME280;15126;42.186;24.340;2023-02-21T01:00:00;99598.72;;;8.78;47.99
27729;BME280;15126;42.186;24.340;2023-02-21T01:02:44;99585.69;;;8.75;48.24
27729;BME280;15126;42.186;24.340;2023-02-21T01:05:30;99595.66;;;8.69;47.63
27729;BME280;15126;42.186;24.340;2023-02-21T01:08:15;99581.75;;;8.69;46.99
27729;BME280;15126;42.186;24.340;2023-02-21T01:10:59;99575.84;;;8.63;46.91
27729;BME280;15126;42.186;24.340;2023-02-21T01:13:43;99569.88;;;8.65;46.72
27729;BME280;15126;42.186;24.340;2023-02-21T01:16:28;99571.47;;;8.66;46.90
27729;BME280;15126;42.186;24.340;2023-02-21T01:19:12;99559.56;;;8.62;47.78
27729;BME280;15126;42.186;24.340;2023-02-21T01:21:58;99561.16;;;8.63;47.63
27729;BME280;15126;42.186;24.340;2023-02-21T01:24:42;99552.00;;;8.66;47.97
27729;BME280;15126;42.186;24.340;2023-02-21T01:27:27;99555.63;;;8.59;48.98
27729;BME280;15126;42.186;24.340;2023-02-21T01:30:11;99557.63;;;8.59;48.58
27729;BME280;15126;42.186;24.340;2023-02-21T01:32:55;99551.63;;;8.64;48.69
27729;BME280;15126;42.186;24.340;2023-02-21T01:35:40;99547.63;;;8.65;48.63
27729;BME280;15126;42.186;24.340;2023-02-21T01:38:25;99542.88;;;8.62;48.10
27729;BME280;15126;42.186;24.340;2023-02-21T01:41:10;99543.22;;;8.67;48.40
27729;BME280;15126;42.186;24.340;2023-02-21T01:43:59;99539.25;;;8.68;48.00
27729;BME280;15126;42.186;24.340;2023-02-21T01:46:44;99526.97;;;8.66;48.52
27729;BME280;15126;42.186;24.340;2023-02-21T01:49:29;99536.06;;;8.70;48.69
27729;BME280;15126;42.186;24.340;2023-02-21T01:52:14;99539.22;;;8.72;48.08
27729;BME280;15126;42.186;24.340;2023-02-21T01:55:00;99540.03;;;8.72;47.75
27729;BME280;15126;42.186;24.340;2023-02-21T01:57:45;99523.78;;;8.67;48.49
27729;BME280;15126;42.186;24.340;2023-02-21T02:00:29;99524.56;;;8.68;48.27
27729;BME280;15126;42.186;24.340;2023-02-21T02:03:15;99506.75;;;8.62;48.25
27729;BME280;15126;42.186;24.340;2023-02-21T02:06:02;99515.44;;;8.67;48.44
27729;BME280;15126;42.186;24.340;2023-02-21T02:08:46;99511.91;;;8.63;48.59
27729;BME280;15126;42.186;24.340;2023-02-21T02:14:50;99493.16;;;8.71;48.49
27729;BME280;15126;42.186;24.340;2023-02-21T02:17:30;99501.09;;;8.72;48.17
27729;BME280;15126;42.186;24.340;2023-02-21T02:20:31;99495.47;;;8.76;48.94
27729;BME280;15126;42.186;24.340;2023-02-21T02:23:31;99494.34;;;8.70;49.90
27729;BME280;15126;42.186;24.340;2023-02-21T02:29:12;99491.16;;;8.75;48.89
27729;BME280;15126;42.186;24.340;2023-02-21T02:32:01;99487.94;;;8.76;48.62
27729;BME280;15126;42.186;24.340;2023-02-21T02:34:50;99476.09;;;8.72;49.56
27729;BME280;15126;42.186;24.340;2023-02-21T02:37:22;99484.84;;;8.67;49.39
27729;BME280;15126;42.186;24.340;2023-02-21T02:39:58;99472.28;;;8.56;49.85
27729;BME280;15126;42.186;24.340;2023-02-21T02:42:45;99479.50;;;8.50;50.50
27729;BME280;15126;42.186;24.340;2023-02-21T02:45:19;99464.47;;;8.44;50.36
27729;BME280;15126;42.186;24.340;2023-02-21T02:47:52;99455.38;;;8.40;50.21
27729;BME280;15126;42.186;24.340;2023-02-21T02:50:23;99447.13;;;8.29;50.54
27729;BME280;15126;42.186;24.340;2023-02-21T02:52:54;99442.25;;;8.40;49.38
27729;BME280;15126;42.186;24.340;2023-02-21T02:55:29;99446.97;;;8.47;48.69
27729;BME280;15126;42.186;24.340;2023-02-21T02:57:58;99454.13;;;8.48;48.94
27729;BME280;15126;42.186;24.340;2023-02-21T03:00:26;99452.56;;;8.43;49.36
27729;BME280;15126;42.186;24.340;2023-02-21T03:03:02;99444.91;;;8.51;49.30
27729;BME280;15126;42.186;24.340;2023-02-21T03:05:46;99448.13;;;8.49;49.50
27729;BME280;15126;42.186;24.340;2023-02-21T03:08:20;99447.69;;;8.51;49.29
27729;BME280;15126;42.186;24.340;2023-02-21T03:10:53;99458.00;;;8.54;49.74
27729;BME280;15126;42.186;24.340;2023-02-21T03:13:30;99444.03;;;8.61;47.83
27729;BME280;15126;42.186;24.340;2023-02-21T03:16:05;99445.66;;;8.58;49.36
27729;BME280;15126;42.186;24.340;2023-02-21T03:18:39;99457.06;;;8.67;48.69
27729;BME280;15126;42.186;24.340;2023-02-21T03:21:13;99450.19;;;8.79;47.75
27729;BME280;15126;42.186;24.340;2023-02-21T03:23:43;99450.06;;;8.86;47.04
27729;BME280;15126;42.186;24.340;2023-02-21T03:26:13;99455.56;;;8.93;47.29
27729;BME280;15126;42.186;24.340;2023-02-21T03:28:41;99465.50;;;8.94;47.53
27729;BME280;15126;42.186;24.340;2023-02-21T03:31:09;99461.81;;;9.01;47.09
27729;BME280;15126;42.186;24.340;2023-02-21T03:33:38;99442.03;;;8.95;47.51
27729;BME280;15126;42.186;24.340;2023-02-21T03:36:07;99462.91;;;9.10;46.75
27729;BME280;15126;42.186;24.340;2023-02-21T03:38:36;99463.63;;;9.14;47.44
27729;BME280;15126;42.186;24.340;2023-02-21T03:41:04;99467.19;;;9.18;46.33
27729;BME280;15126;42.186;24.340;2023-02-21T03:43:32;99461.19;;;9.20;46.37
27729;BME280;15126;42.186;24.340;2023-02-21T03:45:59;99459.56;;;9.22;47.41
27729;BME280;15126;42.186;24.340;2023-02-21T03:48:25;99461.81;;;9.31;45.85
27729;BME280;15126;42.186;24.340;2023-02-21T03:50:52;99457.09;;;9.28;46.17
27729;BME280;15126;42.186;24.340;2023-02-21T03:53:19;99461.03;;;9.30;46.26
27729;BME280;15126;42.186;24.340;2023-02-21T03:55:47;99463.03;;;9.30;46.34
27729;BME280;15126;42.186;24.340;2023-02-21T03:58:14;99466.25;;;9.28;46.21
27729;BME280;15126;42.186;24.340;2023-02-21T04:00:41;99473.38;;;9.29;45.93
27729;BME280;15126;42.186;24.340;2023-02-21T04:03:08;99457.88;;;9.28;46.70
27729;BME280;15126;42.186;24.340;2023-02-21T04:05:35;99454.59;;;9.37;46.34
27729;BME280;15126;42.186;24.340;2023-02-21T04:08:02;99447.91;;;9.31;46.22
27729;BME280;15126;42.186;24.340;2023-02-21T04:10:30;99470.47;;;9.40;46.12
27729;BME280;15126;42.186;24.340;2023-02-21T04:12:58;99455.75;;;9.39;46.47
27729;BME280;15126;42.186;24.340;2023-02-21T04:15:25;99454.97;;;9.39;46.71
27729;BME280;15126;42.186;24.340;2023-02-21T04:17:52;99447.88;;;9.34;46.68
27729;BME280;15126;42.186;24.340;2023-02-21T04:20:19;99460.09;;;9.40;45.95
27729;BME280;15126;42.186;24.340;2023-02-21T04:22:45;99456.94;;;9.38;46.07
27729;BME280;15126;42.186;24.340;2023-02-21T04:25:13;99451.34;;;9.42;45.75
27729;BME280;15126;42.186;24.340;2023-02-21T04:27:40;99456.06;;;9.45;45.81
27729;BME280;15126;42.186;24.340;2023-02-21T04:30:10;99468.00;;;9.45;46.07
27729;BME280;15126;42.186;24.340;2023-02-21T04:32:37;99457.69;;;9.42;46.15
27729;BME280;15126;42.186;24.340;2023-02-21T04:35:04;99472.69;;;9.48;45.91
27729;BME280;15126;42.186;24.340;2023-02-21T04:37:31;99477.19;;;9.42;45.94
27729;BME280;15126;42.186;24.340;2023-02-21T04:39:58;99470.38;;;9.43;46.46
27729;BME280;15126;42.186;24.340;2023-02-21T04:42:25;99478.09;;;9.32;46.86
27729;BME280;15126;42.186;24.340;2023-02-21T04:44:52;99483.22;;;9.37;46.52
27729;BME280;15126;42.186;24.340;2023-02-21T04:47:20;99474.59;;;9.28;47.04
27729;BME280;15126;42.186;24.340;2023-02-21T04:49:47;99488.88;;;9.30;46.77
27729;BME280;15126;42.186;24.340;2023-02-21T04:52:16;99482.97;;;9.25;47.64
27729;BME280;15126;42.186;24.340;2023-02-21T04:54:45;99489.44;;;9.18;47.74
27729;BME280;15126;42.186;24.340;2023-02-21T04:57:12;99485.44;;;9.19;47.35
27729;BME280;15126;42.186;24.340;2023-02-21T04:59:39;99491.09;;;9.12;48.31
27729;BME280;15126;42.186;24.340;2023-02-21T05:02:06;99489.16;;;9.09;48.16
27729;BME280;15126;42.186;24.340;2023-02-21T05:04:34;99477.25;;;9.05;48.15
27729;BME280;15126;42.186;24.340;2023-02-21T05:07:02;99484.41;;;9.06;47.58
27729;BME280;15126;42.186;24.340;2023-02-21T05:09:29;99487.94;;;9.10;47.63
27729;BME280;15126;42.186;24.340;2023-02-21T05:12:04;99494.41;;;9.00;47.80
27729;BME280;15126;42.186;24.340;2023-02-21T05:14:36;99496.84;;;8.94;48.26
27729;BME280;15126;42.186;24.340;2023-02-21T05:17:02;99496.50;;;8.92;48.47
27729;BME280;15126;42.186;24.340;2023-02-21T05:19:29;99485.78;;;8.91;48.34
27729;BME280;15126;42.186;24.340;2023-02-21T05:21:59;99496.13;;;8.90;48.50
27729;BME280;15126;42.186;24.340;2023-02-21T05:24:27;99483.44;;;8.86;48.28
27729;BME280;15126;42.186;24.340;2023-02-21T05:26:55;99481.13;;;8.81;49.55
27729;BME280;15126;42.186;24.340;2023-02-21T05:29:22;99494.56;;;8.86;49.03
27729;BME280;15126;42.186;24.340;2023-02-21T05:31:49;99483.50;;;8.82;49.36
27729;BME280;15126;42.186;24.340;2023-02-21T05:34:17;99487.56;;;8.74;49.66
27729;BME280;15126;42.186;24.340;2023-02-21T05:36:44;99494.19;;;8.84;49.47
27729;BME280;15126;42.186;24.340;2023-02-21T05:39:12;99486.22;;;8.86;48.91
27729;BME280;15126;42.186;24.340;2023-02-21T05:41:45;99500.03;;;8.96;48.40
27729;BME280;15126;42.186;24.340;2023-02-21T05:44:12;99502.75;;;9.00;49.34
27729;BME280;15126;42.186;24.340;2023-02-21T05:46:39;99499.47;;;9.09;48.17
27729;BME280;15126;42.186;24.340;2023-02-21T05:49:06;99499.13;;;9.07;49.29
27729;BME280;15126;42.186;24.340;2023-02-21T05:51:33;99490.84;;;8.99;49.00
27729;BME280;15126;42.186;24.340;2023-02-21T05:54:03;99497.50;;;9.09;49.26
27729;BME280;15126;42.186;24.340;2023-02-21T05:56:36;99507.28;;;9.21;48.56
27729;BME280;15126;42.186;24.340;2023-02-21T05:59:03;99510.66;;;9.35;48.55
27729;BME280;15126;42.186;24.340;2023-02-21T06:01:30;99509.44;;;9.40;48.21
27729;BME280;15126;42.186;24.340;2023-02-21T06:03:56;99506.06;;;9.52;48.54
27729;BME280;15126;42.186;24.340;2023-02-21T06:06:23;99505.19;;;9.58;47.75
27729;BME280;15126;42.186;24.340;2023-02-21T06:08:50;99507.38;;;9.71;47.80
27729;BME280;15126;42.186;24.340;2023-02-21T06:11:22;99508.13;;;9.75;49.52
27729;BME280;15126;42.186;24.340;2023-02-21T06:13:52;99501.28;;;9.79;48.80
27729;BME280;15126;42.186;24.340;2023-02-21T06:16:20;99496.00;;;9.88;48.76
27729;BME280;15126;42.186;24.340;2023-02-21T06:18:49;99491.22;;;9.89;47.74
27729;BME280;15126;42.186;24.340;2023-02-21T06:21:16;99495.50;;;9.93;47.65
27729;BME280;15126;42.186;24.340;2023-02-21T06:23:43;99499.88;;;9.94;48.06
27729;BME280;15126;42.186;24.340;2023-02-21T06:26:10;99501.53;;;9.92;48.87
27729;BME280;15126;42.186;24.340;2023-02-21T06:28:37;99492.28;;;9.95;47.27
27729;BME280;15126;42.186;24.340;2023-02-21T06:31:05;99509.47;;;9.90;48.38
27729;BME280;15126;42.186;24.340;2023-02-21T06:33:32;99500.78;;;9.88;48.06
27729;BME280;15126;42.186;24.340;2023-02-21T06:36:03;99506.97;;;9.99;47.04
27729;BME280;15126;42.186;24.340;2023-02-21T06:38:30;99507.94;;;10.12;47.41
27729;BME280;15126;42.186;24.340;2023-02-21T06:40:57;99511.03;;;10.21;47.60
27729;BME280;15126;42.186;24.340;2023-02-21T06:43:24;99510.22;;;10.21;46.81
27729;BME280;15126;42.186;24.340;2023-02-21T06:45:51;99509.78;;;10.22;47.16
27729;BME280;15126;42.186;24.340;2023-02-21T06:48:19;99530.34;;;10.32;46.48
27729;BME280;15126;42.186;24.340;2023-02-21T06:50:46;99520.66;;;10.40;47.13
27729;BME280;15126;42.186;24.340;2023-02-21T06:53:13;99522.41;;;10.53;46.14
27729;BME280;15126;42.186;24.340;2023-02-21T06:55:40;99513.06;;;10.63;45.69
27729;BME280;15126;42.186;24.340;2023-02-21T06:58:06;99522.03;;;10.74;45.78
27729;BME280;15126;42.186;24.340;2023-02-21T07:00:33;99525.41;;;10.86;46.08
27729;BME280;15126;42.186;24.340;2023-02-21T07:03:00;99521.69;;;10.92;45.42
27729;BME280;15126;42.186;24.340;2023-02-21T07:05:28;99516.31;;;11.01;46.62
27729;BME280;15126;42.186;24.340;2023-02-21T07:07:59;99519.41;;;11.07;46.31
27729;BME280;15126;42.186;24.340;2023-02-21T07:10:26;99523.56;;;11.18;46.30
27729;BME280;15126;42.186;24.340;2023-02-21T07:12:53;99525.97;;;11.36;46.57
27729;BME280;15126;42.186;24.340;2023-02-21T07:15:20;99518.53;;;11.49;45.39
27729;BME280;15126;42.186;24.340;2023-02-21T07:17:47;99518.13;;;11.67;45.40
27729;BME280;15126;42.186;24.340;2023-02-21T07:20:14;99516.19;;;11.83;44.97
27729;BME280;15126;42.186;24.340;2023-02-21T07:22:42;99503.44;;;11.99;44.59
27729;BME280;15126;42.186;24.340;2023-02-21T07:25:13;99487.06;;;12.17;44.28
27729;BME280;15126;42.186;24.340;2023-02-21T07:27:40;99491.81;;;12.48;43.00
27729;BME280;15126;42.186;24.340;2023-02-21T07:30:07;99497.66;;;12.70;43.02
27729;BME280;15126;42.186;24.340;2023-02-21T07:32:34;99495.16;;;12.88;42.37
27729;BME280;15126;42.186;24.340;2023-02-21T07:35:01;99485.06;;;13.07;43.42
27729;BME280;15126;42.186;24.340;2023-02-21T07:37:28;99492.53;;;13.39;42.61
27729;BME280;15126;42.186;24.340;2023-02-21T07:39:56;99496.38;;;13.57;42.54
27729;BME280;15126;42.186;24.340;2023-02-21T07:42:23;99491.22;;;13.81;40.96
27729;BME280;15126;42.186;24.340;2023-02-21T07:44:54;99486.75;;;13.96;40.77
27729;BME280;15126;42.186;24.340;2023-02-21T07:47:21;99500.31;;;14.23;41.41
27729;BME280;15126;42.186;24.340;2023-02-21T07:49:48;99487.06;;;14.36;40.90
27729;BME280;15126;42.186;24.340;2023-02-21T07:52:14;99480.19;;;14.50;39.58
27729;BME280;15126;42.186;24.340;2023-02-21T07:54:41;99473.50;;;14.69;40.20
27729;BME280;15126;42.186;24.340;2023-02-21T07:57:09;99471.69;;;14.75;39.30
27729;BME280;15126;42.186;24.340;2023-02-21T07:59:36;99464.84;;;14.98;39.61
27729;BME280;15126;42.186;24.340;2023-02-21T08:02:03;99466.09;;;15.18;38.17
27729;BME280;15126;42.186;24.340;2023-02-21T08:04:30;99464.66;;;15.35;37.46
27729;BME280;15126;42.186;24.340;2023-02-21T08:06:58;99431.44;;;15.43;39.47
27729;BME280;15126;42.186;24.340;2023-02-21T08:09:25;99446.59;;;15.76;37.17
27729;BME280;15126;42.186;24.340;2023-02-21T08:11:52;99446.97;;;15.96;37.58
27729;BME280;15126;42.186;24.340;2023-02-21T08:14:20;99452.66;;;16.15;37.96
27729;BME280;15126;42.186;24.340;2023-02-21T08:16:47;99461.78;;;16.28;36.78
27729;BME280;15126;42.186;24.340;2023-02-21T08:19:14;99452.56;;;16.45;36.70
27729;BME280;15126;42.186;24.340;2023-02-21T08:21:43;99440.06;;;16.46;37.08
27729;BME280;15126;42.186;24.340;2023-02-21T08:24:11;99447.91;;;16.60;36.53
27729;BME280;15126;42.186;24.340;2023-02-21T08:26:39;99439.78;;;16.72;36.83
27729;BME280;15126;42.186;24.340;2023-02-21T08:29:06;99436.66;;;16.79;35.22
27729;BME280;15126;42.186;24.340;2023-02-21T08:31:35;99438.06;;;16.92;34.37
27729;BME280;15126;42.186;24.340;2023-02-21T08:34:02;99432.88;;;17.00;33.71
27729;BME280;15126;42.186;24.340;2023-02-21T08:36:33;99412.53;;;17.05;34.08
27729;BME280;15126;42.186;24.340;2023-02-21T08:39:00;99416.44;;;17.07;34.65
27729;BME280;15126;42.186;24.340;2023-02-21T08:41:34;99410.34;;;17.09;34.32
27729;BME280;15126;42.186;24.340;2023-02-21T08:44:01;99407.63;;;17.23;34.06
27729;BME280;15126;42.186;24.340;2023-02-21T08:46:27;99402.44;;;17.31;34.42
27729;BME280;15126;42.186;24.340;2023-02-21T08:48:55;99368.13;;;17.33;32.48
27729;BME280;15126;42.186;24.340;2023-02-21T08:51:23;99398.91;;;17.63;32.75
27729;BME280;15126;42.186;24.340;2023-02-21T08:53:50;99396.78;;;17.82;35.22
27729;BME280;15126;42.186;24.340;2023-02-21T08:56:17;99387.13;;;17.98;34.29
27729;BME280;15126;42.186;24.340;2023-02-21T08:58:44;99389.84;;;18.16;32.16
27729;BME280;15126;42.186;24.340;2023-02-21T09:01:11;99386.28;;;18.30;31.59
27729;BME280;15126;42.186;24.340;2023-02-21T09:03:38;99377.38;;;18.46;32.05
27729;BME280;15126;42.186;24.340;2023-02-21T09:06:06;99372.78;;;18.58;30.99
27729;BME280;15126;42.186;24.340;2023-02-21T09:08:34;99374.84;;;18.72;30.26
27729;BME280;15126;42.186;24.340;2023-02-21T09:11:01;99355.97;;;18.78;31.06
27729;BME280;15126;42.186;24.340;2023-02-21T09:13:29;99376.63;;;18.98;31.32
27729;BME280;15126;42.186;24.340;2023-02-21T09:15:57;99369.03;;;19.05;31.94
27729;BME280;15126;42.186;24.340;2023-02-21T09:18:24;99370.09;;;19.22;31.51
27729;BME280;15126;42.186;24.340;2023-02-21T09:20:51;99361.78;;;19.33;30.25
27729;BME280;15126;42.186;24.340;2023-02-21T09:23:25;99364.81;;;19.44;29.52
27729;BME280;15126;42.186;24.340;2023-02-21T09:25:51;99357.63;;;19.43;29.63
27729;BME280;15126;42.186;24.340;2023-02-21T09:28:19;99355.66;;;19.49;30.08
27729;BME280;15126;42.186;24.340;2023-02-21T09:30:47;99359.53;;;19.51;29.70
27729;BME280;15126;42.186;24.340;2023-02-21T09:33:15;99356.72;;;19.51;29.36
27729;BME280;15126;42.186;24.340;2023-02-21T09:35:42;99354.28;;;19.59;31.73
27729;BME280;15126;42.186;24.340;2023-02-21T09:38:08;99350.59;;;19.53;29.61
27729;BME280;15126;42.186;24.340;2023-02-21T09:40:41;99337.59;;;19.61;29.42
27729;BME280;15126;42.186;24.340;2023-02-21T09:43:12;99332.97;;;19.78;29.91
27729;BME280;15126;42.186;24.340;2023-02-21T09:45:41;99308.03;;;19.82;30.63
27729;BME280;15126;42.186;24.340;2023-02-21T09:48:12;99321.22;;;20.05;28.88
27729;BME280;15126;42.186;24.340;2023-02-21T09:50:43;99316.25;;;20.20;29.09
27729;BME280;15126;42.186;24.340;2023-02-21T09:53:15;99317.34;;;20.43;28.91
27729;BME280;15126;42.186;24.340;2023-02-21T09:55:47;99300.41;;;20.49;28.24
27729;BME280;15126;42.186;24.340;2023-02-21T09:58:19;99308.84;;;20.69;30.43
27729;BME280;15126;42.186;24.340;2023-02-21T10:00:46;99307.75;;;20.87;28.91
27729;BME280;15126;42.186;24.340;2023-02-21T10:03:25;99295.72;;;20.97;29.33
27729;BME280;15126;42.186;24.340;2023-02-21T10:06:00;99292.53;;;21.15;27.27
27729;BME280;15126;42.186;24.340;2023-02-21T10:08:33;99286.44;;;21.28;28.88
27729;BME280;15126;42.186;24.340;2023-02-21T10:11:19;99279.59;;;21.46;28.26
27729;BME280;15126;42.186;24.340;2023-02-21T10:13:53;99274.94;;;21.43;27.39
27729;BME280;15126;42.186;24.340;2023-02-21T10:16:25;99266.13;;;21.35;28.47
27729;BME280;15126;42.186;24.340;2023-02-21T10:19:00;99260.16;;;21.27;28.25
27729;BME280;15126;42.186;24.340;2023-02-21T10:21:31;99260.94;;;21.33;29.08
27729;BME280;15126;42.186;24.340;2023-02-21T10:24:02;99254.97;;;21.26;28.21
27729;BME280;15126;42.186;24.340;2023-02-21T10:26:36;99249.13;;;21.41;27.44
27729;BME280;15126;42.186;24.340;2023-02-21T10:29:16;99248.47;;;21.57;29.22
27729;BME280;15126;42.186;24.340;2023-02-21T10:31:45;99247.19;;;21.58;28.10
27729;BME280;15126;42.186;24.340;2023-02-21T10:34:19;99235.28;;;21.54;26.41
27729;BME280;15126;42.186;24.340;2023-02-21T10:36:48;99228.28;;;21.49;27.18
27729;BME280;15126;42.186;24.340;2023-02-21T10:39:18;99227.03;;;21.56;28.62
27729;BME280;15126;42.186;24.340;2023-02-21T10:41:48;99233.53;;;21.67;29.68
27729;BME280;15126;42.186;24.340;2023-02-21T10:44:18;99220.16;;;21.73;28.75
27729;BME280;15126;42.186;24.340;2023-02-21T10:46:53;99226.06;;;21.70;28.48
27729;BME280;15126;42.186;24.340;2023-02-21T10:49:25;99210.19;;;21.94;27.43
27729;BME280;15126;42.186;24.340;2023-02-21T10:52:10;99206.63;;;22.05;25.34
27729;BME280;15126;42.186;24.340;2023-02-21T10:54:37;99207.91;;;21.99;26.58
27729;BME280;15126;42.186;24.340;2023-02-21T10:57:07;99200.47;;;22.12;26.83
27729;BME280;15126;42.186;24.340;2023-02-21T10:59:38;99195.56;;;22.29;26.71
27729;BME280;15126;42.186;24.340;2023-02-21T11:02:25;99192.75;;;22.35;25.73
27729;BME280;15126;42.186;24.340;2023-02-21T11:04:54;99190.94;;;22.48;25.31
27729;BME280;15126;42.186;24.340;2023-02-21T11:07:22;99189.13;;;22.45;24.45
27729;BME280;15126;42.186;24.340;2023-02-21T11:09:49;99180.88;;;22.36;26.52
27729;BME280;15126;42.186;24.340;2023-02-21T11:12:21;99157.59;;;22.38;25.18
27729;BME280;15126;42.186;24.340;2023-02-21T11:15:09;99141.84;;;22.48;25.75
27729;BME280;15126;42.186;24.340;2023-02-21T11:17:41;99131.25;;;22.48;24.23
27729;BME280;15126;42.186;24.340;2023-02-21T11:20:17;99133.84;;;22.52;25.30
27729;BME280;15126;42.186;24.340;2023-02-21T11:22:49;99127.63;;;22.53;24.74
27729;BME280;15126;42.186;24.340;2023-02-21T11:25:23;99135.91;;;22.63;23.43
27729;BME280;15126;42.186;24.340;2023-02-21T11:28:02;99125.59;;;22.65;23.86
27729;BME280;15126;42.186;24.340;2023-02-21T11:30:31;99106.94;;;22.59;24.13
27729;BME280;15126;42.186;24.340;2023-02-21T11:33:01;99096.63;;;22.61;23.75
27729;BME280;15126;42.186;24.340;2023-02-21T11:35:32;99114.47;;;22.78;23.43
27729;BME280;15126;42.186;24.340;2023-02-21T11:38:01;99109.56;;;22.68;23.85
27729;BME280;15126;42.186;24.340;2023-02-21T11:40:31;99115.00;;;22.71;23.72
27729;BME280;15126;42.186;24.340;2023-02-21T11:43:13;99101.25;;;22.81;23.52
27729;BME280;15126;42.186;24.340;2023-02-21T11:45:51;99109.31;;;22.71;23.55
27729;BME280;15126;42.186;24.340;2023-02-21T11:48:21;99096.88;;;22.52;23.81
27729;BME280;15126;42.186;24.340;2023-02-21T11:50:57;99094.84;;;22.64;23.14
27729;BME280;15126;42.186;24.340;2023-02-21T11:53:29;99101.28;;;22.70;22.61
27729;BME280;15126;42.186;24.340;2023-02-21T11:56:02;99090.94;;;22.78;21.87
27729;BME280;15126;42.186;24.340;2023-02-21T11:58:41;99090.94;;;22.78;23.16
27729;BME280;15126;42.186;24.340;2023-02-21T12:01:13;99092.75;;;22.70;21.85
27729;BME280;15126;42.186;24.340;2023-02-21T12:03:55;99086.56;;;22.71;23.51
27729;BME280;15126;42.186;24.340;2023-02-21T12:06:31;99068.97;;;22.67;23.26
27729;BME280;15126;42.186;24.340;2023-02-21T12:09:06;99088.59;;;22.60;22.43
27729;BME280;15126;42.186;24.340;2023-02-21T12:11:44;99068.19;;;22.61;22.62
27729;BME280;15126;42.186;24.340;2023-02-21T12:17:12;99062.75;;;22.80;22.13
27729;BME280;15126;42.186;24.340;2023-02-21T12:19:56;99062.75;;;22.85;22.40
27729;BME280;15126;42.186;24.340;2023-02-21T12:22:40;99052.38;;;22.99;23.43
27729;BME280;15126;42.186;24.340;2023-02-21T12:25:18;99051.03;;;23.11;21.93
27729;BME280;15126;42.186;24.340;2023-02-21T12:27:52;99044.72;;;23.29;22.62
27729;BME280;15126;42.186;24.340;2023-02-21T12:30:33;99046.25;;;23.36;22.87
27729;BME280;15126;42.186;24.340;2023-02-21T12:33:11;99031.47;;;23.48;21.87
27729;BME280;15126;42.186;24.340;2023-02-21T12:35:58;99033.03;;;23.44;22.49
27729;BME280;15126;42.186;24.340;2023-02-21T12:38:44;99022.19;;;23.37;21.93
27729;BME280;15126;42.186;24.340;2023-02-21T12:41:26;99028.16;;;23.39;22.05
27729;BME280;15126;42.186;24.340;2023-02-21T12:44:02;99025.78;;;23.43;21.07
27729;BME280;15126;42.186;24.340;2023-02-21T12:46:49;99016.00;;;23.33;21.66
27729;BME280;15126;42.186;24.340;2023-02-21T12:49:21;99030.50;;;23.29;22.51
27729;BME280;15126;42.186;24.340;2023-02-21T12:51:56;99013.47;;;23.24;21.82
27729;BME280;15126;42.186;24.340;2023-02-21T12:54:34;99013.00;;;23.08;22.05
27729;BME280;15126;42.186;24.340;2023-02-21T12:57:05;99014.63;;;22.93;22.63
27729;BME280;15126;42.186;24.340;2023-02-21T12:59:43;99009.44;;;22.97;22.01
27729;BME280;15126;42.186;24.340;2023-02-21T13:02:20;99007.91;;;22.96;22.05
27729;BME280;15126;42.186;24.340;2023-02-21T13:04:53;98983.38;;;22.82;23.70
27729;BME280;15126;42.186;24.340;2023-02-21T13:07:23;98990.63;;;22.83;22.57
27729;BME280;15126;42.186;24.340;2023-02-21T13:09:58;98978.50;;;22.77;21.88
27729;BME280;15126;42.186;24.340;2023-02-21T13:12:30;98976.16;;;22.59;22.51
27729;BME280;15126;42.186;24.340;2023-02-21T13:15:08;98979.28;;;22.72;22.63
27729;BME280;15126;42.186;24.340;2023-02-21T13:17:40;98975.94;;;22.57;22.84
27729;BME280;15126;42.186;24.340;2023-02-21T13:20:14;98983.19;;;22.63;22.22
27729;BME280;15126;42.186;24.340;2023-02-21T13:26:25;98976.50;;;22.33;23.01
27729;BME280;15126;42.186;24.340;2023-02-21T13:28:56;98974.97;;;22.15;23.36
27729;BME280;15126;42.186;24.340;2023-02-21T13:31:28;98985.31;;;22.13;21.76
27729;BME280;15126;42.186;24.340;2023-02-21T13:34:05;98970.59;;;21.98;23.11
27729;BME280;15126;42.186;24.340;2023-02-21T13:36:40;98988.16;;;21.96;22.88
27729;BME280;15126;42.186;24.340;2023-02-21T13:39:12;98989.19;;;22.04;22.44